National Weather Service
For a better view on National Weather Service, Update Your Browser.
Today's Forecast As of 19 Jun 2024 7:35 AM
Partly Cloudy
Morning
Partly Cloudy
Min 78o F | Max 90o F
  • Partly Cloudy
    Afternoon
    Partly Cloudy
    Min 78o F | Max 90o F
  • Partly Cloudy
    Evening
    Partly Cloudy
    Min 78o F | Max 90o F
  • Partly Cloudy
    Night
    Partly Cloudy
    Min 78o F | Max 90o F
05:49 19:04
  • East to southeast at 10 to 15 knots.

  • Slight to moderate with a wave height of 2 to 4 feet.

Aviation Forecast

Grand Cayman: Terminal Aerodrome Forecast

Last updated at 19 Jun 2024 12:22 PM

TAF MWCR 191100Z 1912/2012 15010KT 9999 FEW018 SCT040
BECMG 1918/1920 12007KT SCT018 PROB30
TEMPO 1919/2001 9000 SHRA SCT016
BECMG 2002/2004 15012KT SCT018

Grand Cayman: Metar Reports

Last updated at 19 Jun 2024 08:00 AM

Jun 19, 2024 - 08:00 AM EDT / 2024.06.19 1200 UTC
Wind: from the SSE (150 degrees) at 5 MPH (4 KT):0
Visibility: greater than 7 mile(s):0
Sky conditions: mostly clear
Temperature: 80 F (27 C)
Dew Point: 75 F (24 C)
Relative Humidity: 83%
Pressure (altimeter): 29.85 in. Hg (1011 hPa)
ob: MWCR 191200Z 15004KT 9999 FEW018 27/24 Q1011

Cayman Brac: Terminal Aerodrome Forecast

Last updated at 19 Jun 2024 12:18 PM

TAF TAF MWCB 191100Z 1912/2012 12009KT 9999 SCT016 PROB30
TEMPO 1916/1924 9000 SHRA SCT016

Cayman Brac: Metar Reports

Last updated at 19 Jun 2024 08:00 AM

Jun 19, 2024 - 08:00 AM EDT / 2024.06.19 1200 UTC
Wind: from the SSE (160 degrees) at 3 MPH (3 KT) (direction variable):0
Visibility: greater than 7 mile(s):0
Sky conditions: mostly cloudy
Temperature: 82 F (28 C)
Dew Point: 71 F (22 C)
Relative Humidity: 69%
Pressure (altimeter): 29.85 in. Hg (1011 hPa)
ob: MWCB 191200Z 16003KT 110V180 9999 BKN016 28/22 Q1011

Turbulence

Turbulence

Time displayed in GMT

Wind SHEAR

Wind SHEAR

Time displayed in GMT